Time;durP1;ratioP1;P1;durP2;ratioP2;P2;SDS_P1;SDS_P2;PMS_P1;PMS_P2;Temp;Humidity;BMP_temperature;BMP_pressure;BME280_temperature;BME280_humidity;BME280_pressure;Samples;Min_cycle;Max_cycle;Signal;HPM_P1;HPM_P2
2021/09/22 00:04:14;;;;;;;32.33;23.85;;;;;;;15.71;54.63;103005.31;10587317;28;20488;-79
2021/09/22 00:09:14;;;;;;;32.80;22.83;;;;;;;15.28;54.42;102929.28;10551430;28;20044;-78
2021/09/22 00:14:15;;;;;;;31.83;23.05;;;;;;;14.96;54.50;102878.41;10587014;28;20039;-79
2021/09/22 00:19:18;;;;;;;30.77;21.70;;;;;;;15.67;53.42;102998.53;10569447;28;20035;-79
2021/09/22 00:24:19;;;;;;;29.30;22.10;;;;;;;14.65;54.58;102846.53;10568493;28;20114;-78
2021/09/22 00:29:19;;;;;;;33.92;23.52;;;;;;;15.58;55.04;103001.28;10586720;28;20036;-79
2021/09/22 00:34:19;;;;;;;32.50;22.17;;;;;;;15.59;55.20;103000.22;10568266;28;20066;-79
2021/09/22 00:39:20;;;;;;;32.40;23.40;;;;;;;15.48;54.83;102988.88;10566385;28;20057;-78
2021/09/22 00:44:20;;;;;;;34.20;24.17;;;;;;;15.40;55.44;102980.72;10567583;28;20098;-79
2021/09/22 00:49:21;;;;;;;33.17;22.95;;;;;;;14.17;55.63;102782.13;10585953;28;20046;-79
2021/09/22 00:54:21;;;;;;;34.53;24.40;;;;;;;15.29;55.04;102958.25;10568373;28;20122;-78
2021/09/22 00:59:21;;;;;;;35.60;24.25;;;;;;;15.47;55.08;102990.72;10568498;28;20085;-79
2021/09/22 01:04:22;;;;;;;38.78;26.10;;;;;;;15.43;55.22;102994.84;10567584;28;20079;-79
2021/09/22 01:09:22;;;;;;;36.90;26.00;;;;;;;15.28;55.22;102962.03;10566391;28;20085;-78
2021/09/22 01:14:23;;;;;;;37.50;23.85;;;;;;;15.46;55.40;102997.22;10550635;28;20027;-78
2021/09/22 01:19:26;;;;;;;33.45;22.63;;;;;;;15.33;55.11;102973.25;10565836;28;20055;-78
2021/09/22 01:24:26;;;;;;;36.85;25.05;;;;;;;15.40;54.96;102981.56;10584219;28;20433;-78
2021/09/22 01:29:27;;;;;;;37.83;24.85;;;;;;;15.22;55.75;102953.66;10565775;28;20077;-78
2021/09/22 01:34:27;;;;;;;43.75;26.23;;;;;;;15.30;55.42;102965.41;10584269;28;20059;-78
2021/09/22 01:39:39;;;;;;;40.53;25.30;;;;;;;15.38;53.98;102985.50;10582763;28;20494;-78
2021/09/22 01:44:39;;;;;;;32.63;25.15;;;;;;;15.18;55.51;102950.44;10566181;28;20067;-78
2021/09/22 01:49:39;;;;;;;37.00;26.33;;;;;;;15.34;55.69;102971.34;10583531;28;20065;-78
2021/09/22 01:54:40;;;;;;;38.70;26.73;;;;;;;15.27;56.20;102965.75;10583017;28;20035;-78
2021/09/22 01:59:40;;;;;;;41.28;28.98;;;;;;;15.34;56.14;102982.28;10565414;28;20501;-78
2021/09/22 02:04:40;;;;;;;42.13;27.20;;;;;;;14.98;56.63;102924.63;10582765;28;20070;-78
2021/09/22 02:09:41;;;;;;;39.33;26.10;;;;;;;13.67;56.11;102716.03;10582522;28;20034;-77
2021/09/22 02:14:41;;;;;;;40.00;27.70;;;;;;;15.40;56.79;102967.91;10583319;28;20046;-79
2021/09/22 02:19:42;;;;;;;38.03;26.05;;;;;;;15.45;56.21;102968.25;10565005;28;20036;-79
2021/09/22 02:24:43;;;;;;;47.47;29.58;;;;;;;15.20;56.85;102923.84;10547397;28;20455;-78
2021/09/22 02:29:44;;;;;;;39.03;26.67;;;;;;;15.31;56.90;102939.81;10565618;28;20028;-77
2021/09/22 02:34:44;;;;;;;41.25;28.80;;;;;;;14.86;56.89;102858.69;10564453;28;20131;-78
2021/09/22 02:39:45;;;;;;;36.33;26.17;;;;;;;15.21;56.18;102900.97;10581624;28;20035;-78
2021/09/22 02:44:45;;;;;;;42.85;29.52;;;;;;;15.51;57.01;102951.13;10564406;28;20035;-79
2021/09/22 02:49:46;;;;;;;55.33;31.90;;;;;;;15.47;57.11;102947.03;10582368;28;20446;-77
2021/09/22 02:54:46;;;;;;;46.08;29.48;;;;;;;15.58;58.66;102957.56;10581886;28;20055;-78
2021/09/22 02:59:46;;;;;;;44.28;30.40;;;;;;;15.62;58.76;102951.75;10581527;28;20428;-78
2021/09/22 03:04:47;;;;;;;35.85;26.88;;;;;;;15.57;58.37;102942.22;10586524;28;20043;-77
2021/09/22 03:09:47;;;;;;;43.63;27.55;;;;;;;14.80;57.23;102797.53;10589238;28;20120;-79
2021/09/22 03:14:48;;;;;;;38.90;25.27;;;;;;;15.59;57.78;102929.22;10573024;28;20039;-78
2021/09/22 03:19:48;;;;;;;36.97;26.70;;;;;;;14.43;57.98;102755.44;10557763;28;20070;-78
2021/09/22 03:24:48;;;;;;;37.20;26.55;;;;;;;15.55;57.37;102927.91;10572133;28;20038;-78
2021/09/22 03:29:49;;;;;;;50.70;26.38;;;;;;;14.26;57.45;102712.06;10571535;28;20028;-78
2021/09/22 03:34:49;;;;;;;42.53;25.30;;;;;;;15.47;57.11;102924.34;10590166;28;20059;-78
2021/09/22 03:39:50;;;;;;;41.05;24.02;;;;;;;15.39;57.18;102925.28;10570993;28;20035;-80
2021/09/22 03:44:50;;;;;;;36.75;24.48;;;;;;;15.10;57.38;102876.84;10571995;28;20089;-78
2021/09/22 03:49:51;;;;;;;32.35;23.55;;;;;;;15.16;57.95;102864.34;10571473;28;20048;-77
2021/09/22 03:54:51;;;;;;;32.42;24.88;;;;;;;15.20;58.73;102891.09;10571104;28;20071;-79
2021/09/22 03:59:51;;;;;;;37.35;27.02;;;;;;;15.40;57.97;102909.75;10571050;28;20032;-79
2021/09/22 04:04:52;;;;;;;33.83;27.10;;;;;;;15.47;58.58;102916.16;10569726;28;20047;-78
2021/09/22 04:09:52;;;;;;;38.63;26.48;;;;;;;15.44;58.71;102906.44;10569204;28;20032;-78
2021/09/22 04:14:54;;;;;;;41.60;28.45;;;;;;;15.29;59.04;102881.81;10587392;28;20035;-77
2021/09/22 04:19:54;;;;;;;29.63;23.35;;;;;;;15.46;59.12;102909.88;10588358;28;20040;-77
2021/09/22 04:24:55;;;;;;;31.52;24.25;;;;;;;14.17;58.49;102700.38;10593291;28;20032;-77
2021/09/22 04:29:55;;;;;;;37.20;24.67;;;;;;;14.43;58.35;102739.09;10574143;28;20043;-78
2021/09/22 04:34:56;;;;;;;38.58;25.42;;;;;;;15.41;59.39;102917.75;10587607;28;20093;-78
2021/09/22 04:39:56;;;;;;;35.67;24.30;;;;;;;15.20;58.50;102898.44;10587065;28;20027;-77
2021/09/22 04:44:56;;;;;;;27.58;21.00;;;;;;;15.42;59.14;102919.47;10586795;28;20475;-77
2021/09/22 04:49:57;;;;;;;29.80;23.45;;;;;;;15.31;58.52;102923.41;10568757;28;20078;-77
2021/09/22 04:54:58;;;;;;;30.85;22.83;;;;;;;15.37;59.00;102921.00;10569896;28;20100;-75
2021/09/22 04:59:58;;;;;;;30.45;20.83;;;;;;;15.26;59.28;102906.75;10534389;28;20057;-75
2021/09/22 05:04:59;;;;;;;31.73;20.85;;;;;;;15.33;59.41;102921.38;10587072;28;20063;-78
2021/09/22 05:09:59;;;;;;;25.83;20.17;;;;;;;15.45;58.29;102932.75;10585407;28;20043;-80
2021/09/22 05:14:59;;;;;;;27.83;19.67;;;;;;;15.24;59.00;102899.78;10584130;28;20035;-79
2021/09/22 05:20:00;;;;;;;30.08;23.58;;;;;;;14.40;58.74;102761.25;10584643;28;20061;-78
2021/09/22 05:25:00;;;;;;;40.55;24.92;;;;;;;15.38;58.02;102931.78;10565456;28;20525;-78
2021/09/22 05:30:01;;;;;;;36.97;22.67;;;;;;;14.70;58.73;102840.53;10565282;28;20031;-78
2021/09/22 05:35:01;;;;;;;31.88;25.48;;;;;;;15.11;58.25;102884.81;10584674;28;20044;-79
2021/09/22 05:40:02;;;;;;;32.08;22.60;;;;;;;15.16;58.46;102884.31;10583007;28;20066;-79
2021/09/22 05:45:03;;;;;;;38.80;27.35;;;;;;;15.22;58.61;102896.34;10583586;28;20383;-79
2021/09/22 05:50:04;;;;;;;52.75;26.13;;;;;;;15.27;58.12;102916.63;10585509;28;20035;-79
2021/09/22 05:55:04;;;;;;;38.30;24.58;;;;;;;15.44;57.98;102922.84;10584862;28;20027;-78
2021/09/22 06:00:05;;;;;;;37.92;23.83;;;;;;;15.60;57.41;102932.81;10585382;28;20467;-78
2021/09/22 06:05:06;;;;;;;41.17;25.67;;;;;;;15.69;57.36;102936.38;10584539;28;20043;-78
2021/09/22 06:10:07;;;;;;;40.92;26.27;;;;;;;15.66;57.76;102917.56;10585123;28;20451;-78
2021/09/22 06:15:07;;;;;;;49.28;27.08;;;;;;;15.94;57.46;102920.63;10582716;28;20039;-79
2021/09/22 06:20:08;;;;;;;39.80;26.90;;;;;;;16.38;57.10;102930.81;10582840;28;20040;-79
2021/09/22 06:25:09;;;;;;;33.55;26.00;;;;;;;16.94;56.91;102923.88;10582817;28;20058;-79
2021/09/22 06:30:10;;;;;;;39.17;28.02;;;;;;;17.32;56.31;102925.59;10583722;28;20060;-79
2021/09/22 06:35:11;;;;;;;31.23;23.45;;;;;;;17.51;55.77;102921.38;10564328;28;20063;-79
2021/09/22 06:40:11;;;;;;;36.38;26.88;;;;;;;17.89;55.64;102931.06;10569263;28;20108;-78
2021/09/22 06:45:12;;;;;;;29.38;22.73;;;;;;;18.32;54.79;102941.13;10573397;28;20042;-79
2021/09/22 06:50:12;;;;;;;32.95;22.35;;;;;;;19.24;53.93;102934.47;10573079;28;20126;-78
2021/09/22 06:55:13;;;;;;;31.88;19.20;;;;;;;20.55;52.11;102940.38;10572329;28;20039;-78
2021/09/22 07:00:14;;;;;;;28.23;17.35;;;;;;;20.10;50.65;102735.78;10572987;28;20040;-78
2021/09/22 07:05:14;;;;;;;32.30;17.48;;;;;;;21.82;49.79;102916.72;10571835;28;20185;-78
2021/09/22 07:10:15;;;;;;;28.35;18.65;;;;;;;22.39;48.62;102943.41;10571559;28;20045;-79
2021/09/22 07:15:15;;;;;;;33.05;17.20;;;;;;;21.62;49.09;102893.09;10573333;28;20466;-79
2021/09/22 07:20:16;;;;;;;25.40;15.48;;;;;;;21.69;49.65;102921.47;10590009;28;20463;-79
2021/09/22 07:25:16;;;;;;;21.80;15.02;;;;;;;22.29;48.53;102946.69;10555321;28;20551;-79
2021/09/22 07:30:17;;;;;;;26.55;13.65;;;;;;;22.21;48.81;102967.16;10589463;28;20040;-79
2021/09/22 07:35:18;;;;;;;26.75;14.15;;;;;;;22.45;48.83;102943.34;10571686;28;20075;-78
2021/09/22 07:40:18;;;;;;;23.98;15.23;;;;;;;23.16;47.37;102916.19;10570309;28;20550;-79
2021/09/22 07:45:18;;;;;;;23.45;13.85;;;;;;;23.81;46.30;102940.41;10570276;28;20116;-79
2021/09/22 07:50:19;;;;;;;22.33;14.35;;;;;;;23.81;46.88;102898.91;10588601;28;20028;-79
2021/09/22 07:55:19;;;;;;;14.50;11.68;;;;;;;24.51;45.92;102923.03;10588077;28;20468;-79
2021/09/22 08:00:20;;;;;;;18.67;11.95;;;;;;;24.06;45.55;102765.84;10588298;28;20027;-79
2021/09/22 08:05:20;;;;;;;17.42;12.52;;;;;;;25.13;46.33;102920.50;10553358;28;20050;-79
2021/09/22 08:10:21;;;;;;;17.20;12.25;;;;;;;25.39;43.71;102935.72;10587181;28;20036;-79
2021/09/22 08:15:21;;;;;;;12.98;11.52;;;;;;;25.14;43.35;102843.72;10587155;28;20039;-78
2021/09/22 08:20:22;;;;;;;16.90;11.60;;;;;;;25.58;43.29;102911.38;10587817;28;20081;-78
2021/09/22 08:25:22;;;;;;;11.15;9.85;;;;;;;25.25;43.42;102899.13;10569035;28;20028;-79
2021/09/22 08:30:23;;;;;;;15.18;12.38;;;;;;;25.28;44.33;102890.31;10568392;28;20485;-79
2021/09/22 08:35:23;;;;;;;13.02;10.23;;;;;;;24.34;43.67;102798.28;10568057;28;20088;-78
2021/09/22 08:40:24;;;;;;;16.73;10.75;;;;;;;25.01;43.52;102789.38;10585472;28;20024;-79
2021/09/22 08:45:24;;;;;;;21.65;11.95;;;;;;;26.52;41.33;102916.28;10551178;28;20080;-79
2021/09/22 08:50:24;;;;;;;19.55;10.50;;;;;;;26.74;41.24;102919.09;10567916;28;20471;-78
2021/09/22 08:55:25;;;;;;;17.95;12.15;;;;;;;26.65;41.35;102870.59;10550852;28;20047;-79
2021/09/22 09:00:25;;;;;;;16.15;10.40;;;;;;;26.47;41.55;102821.72;10568297;28;20039;-78
2021/09/22 09:05:26;;;;;;;12.38;10.23;;;;;;;26.71;41.21;102908.50;10585070;28;20135;-79
2021/09/22 09:10:30;;;;;;;14.82;12.35;;;;;;;27.31;40.86;102937.31;10549792;28;20055;-78
2021/09/22 09:15:51;;;;;;;13.02;11.35;;;;;;;27.47;41.50;102922.47;10585444;28;20042;-79
2021/09/22 09:20:53;;;;;;;19.00;9.52;;;;;;;27.72;39.83;102943.28;10584807;28;20044;-78
2021/09/22 09:25:56;;;;;;;14.05;11.82;;;;;;;26.45;39.72;102848.91;10566591;28;20035;-78
2021/09/22 09:31:09;;;;;;;12.63;10.77;;;;;;;26.79;41.32;102923.88;10567188;28;20039;-79
2021/09/22 09:36:29;;;;;;;19.25;11.55;;;;;;;25.77;41.61;102800.97;10550732;28;20034;-79
2021/09/22 09:41:31;;;;;;;13.98;12.15;;;;;;;27.18;40.63;102913.50;10583740;28;20035;-80
2021/09/22 09:46:31;;;;;;;16.80;11.15;;;;;;;27.37;39.92;102872.25;10586857;28;20106;-80
2021/09/22 09:51:36;;;;;;;18.92;12.55;;;;;;;27.26;39.40;102882.47;10565799;28;20040;-79
2021/09/22 09:56:37;;;;;;;12.65;10.82;;;;;;;27.76;38.84;102885.97;10548606;28;20030;-79
2021/09/22 10:01:41;;;;;;;21.73;11.38;;;;;;;28.63;38.08;102889.41;10582947;28;20078;-79
2021/09/22 10:06:43;;;;;;;17.80;11.18;;;;;;;29.26;36.78;102872.59;10584020;28;20052;-79
2021/09/22 10:11:47;;;;;;;19.30;11.55;;;;;;;29.82;35.82;102895.00;10565204;28;20035;-79
2021/09/22 10:16:49;;;;;;;16.92;12.45;;;;;;;29.52;35.70;102893.03;10566647;28;20063;-79
2021/09/22 10:21:49;;;;;;;13.52;11.07;;;;;;;29.80;35.14;102898.09;10584016;28;20463;-79
2021/09/22 10:26:50;;;;;;;19.52;10.90;;;;;;;29.88;35.16;102894.72;10568441;28;20035;-79
2021/09/22 10:31:50;;;;;;;20.73;13.40;;;;;;;29.18;35.39;102776.34;10584431;28;20047;-79
2021/09/22 10:36:51;;;;;;;16.73;10.05;;;;;;;30.43;34.71;102855.78;10564376;28;20452;-79
2021/09/22 10:41:51;;;;;;;15.05;10.68;;;;;;;30.16;34.46;102881.28;10581463;28;20063;-80
2021/09/22 10:46:51;;;;;;;14.05;10.68;;;;;;;30.75;34.88;102854.53;10546775;28;20471;-80
2021/09/22 10:51:52;;;;;;;13.80;9.80;;;;;;;30.43;33.65;102799.06;10564747;28;20051;-79
2021/09/22 10:56:52;;;;;;;16.98;11.00;;;;;;;31.57;32.49;102857.69;10547982;28;20040;-80
2021/09/22 11:01:53;;;;;;;11.30;7.53;;;;;;;31.81;31.84;102848.50;10582539;28;20036;-79
2021/09/22 11:06:54;;;;;;;8.93;8.02;;;;;;;31.96;31.29;102811.97;10563473;28;20051;-79
2021/09/22 11:11:54;;;;;;;8.55;7.50;;;;;;;30.30;32.78;102859.19;10581154;28;20039;-79
2021/09/22 11:16:55;;;;;;;20.50;8.23;;;;;;;30.22;32.97;102838.28;10581097;28;20028;-79
2021/09/22 11:21:56;;;;;;;8.13;7.22;;;;;;;31.08;32.40;102832.56;10563107;28;20483;-79
2021/09/22 11:26:59;;;;;;;12.80;9.07;;;;;;;31.47;31.65;102835.38;10570030;28;20085;-79
2021/09/22 11:32:01;;;;;;;9.02;7.53;;;;;;;31.80;30.15;102833.66;10590631;28;20039;-79
2021/09/22 11:37:12;;;;;;;12.57;8.73;;;;;;;30.38;32.22;102737.56;10570431;28;20028;-79
2021/09/22 11:42:15;;;;;;;7.60;6.18;;;;;;;29.07;31.69;102554.28;10569145;28;20027;-79
2021/09/22 11:47:16;;;;;;;10.40;6.40;;;;;;;29.71;30.66;102681.09;10587970;28;20038;-80
2021/09/22 11:52:18;;;;;;;17.45;9.02;;;;;;;29.60;32.05;102658.81;10552268;28;20052;-80
2021/09/22 11:57:18;;;;;;;11.93;8.80;;;;;;;30.45;31.09;102799.63;10569111;28;20501;-80
2021/09/22 12:02:19;;;;;;;10.50;5.90;;;;;;;31.08;31.70;102783.03;10568797;28;20043;-78
2021/09/22 12:07:27;;;;;;;7.13;5.78;;;;;;;30.52;30.27;102749.81;10568176;28;20085;-80
2021/09/22 12:12:27;;;;;;;6.63;6.00;;;;;;;30.97;30.44;102764.63;10552293;28;20516;-80
2021/09/22 12:17:30;;;;;;;7.75;6.60;;;;;;;30.61;30.32;102694.94;10568792;28;20082;-80
2021/09/22 12:22:33;;;;;;;14.32;5.95;;;;;;;30.99;30.98;102759.59;10568625;28;20156;-79
2021/09/22 12:27:33;;;;;;;8.43;5.88;;;;;;;31.44;30.03;102746.38;10586070;28;20024;-80
2021/09/22 12:32:53;;;;;;;7.97;5.78;;;;;;;30.05;30.87;102724.00;10567335;28;20047;-80
2021/09/22 12:37:58;;;;;;;8.55;6.10;;;;;;;29.42;31.48;102592.41;10569714;28;20095;-80
2021/09/22 12:43:00;;;;;;;8.90;6.97;;;;;;;31.00;29.71;102736.09;10585213;28;20028;-80
2021/09/22 12:48:04;;;;;;;8.00;5.43;;;;;;;29.89;30.56;102583.56;10567338;28;20109;-80
2021/09/22 12:53:15;;;;;;;6.38;5.65;;;;;;;30.64;30.90;102715.91;10584426;28;20055;-80
2021/09/22 12:58:23;;;;;;;22.73;6.90;;;;;;;29.82;31.45;102744.19;10584926;28;20031;-80
2021/09/22 13:03:30;;;;;;;9.10;5.75;;;;;;;29.16;32.18;102625.97;10566324;28;20031;-79
2021/09/22 13:08:30;;;;;;;7.38;5.97;;;;;;;29.39;32.09;102713.00;10565939;28;20518;-79
2021/09/22 13:13:44;;;;;;;7.45;6.53;;;;;;;30.48;32.20;102740.31;10584389;28;20032;-80
2021/09/22 13:18:44;;;;;;;11.43;5.82;;;;;;;30.84;30.28;102714.94;10566378;28;20023;-80
2021/09/22 13:23:52;;;;;;;6.15;5.50;;;;;;;30.77;30.24;102645.34;10565992;28;20048;-79
2021/09/22 13:28:52;;;;;;;11.07;6.05;;;;;;;30.96;30.27;102693.03;10566592;28;20027;-80
2021/09/22 13:33:53;;;;;;;9.57;7.53;;;;;;;30.86;29.44;102681.94;10565491;28;20028;-79
2021/09/22 13:38:54;;;;;;;9.05;6.35;;;;;;;29.50;30.12;102526.78;10564836;28;20432;-80
2021/09/22 13:43:54;;;;;;;22.58;6.97;;;;;;;29.82;30.60;102654.81;10583853;28;20043;-79
2021/09/22 13:48:55;;;;;;;6.95;5.63;;;;;;;29.99;30.42;102674.00;10583185;28;20063;-80
2021/09/22 13:53:55;;;;;;;7.20;6.45;;;;;;;29.27;30.89;102533.88;10582730;28;20035;-79
2021/09/22 13:58:56;;;;;;;10.77;5.97;;;;;;;28.62;31.50;102653.53;10564384;28;20027;-81
2021/09/22 14:03:56;;;;;;;11.30;6.30;;;;;;;28.21;32.33;102659.03;10582826;28;20467;-80
2021/09/22 14:08:57;;;;;;;8.05;6.85;;;;;;;28.41;32.34;102592.22;10564126;28;20051;-79
2021/09/22 14:13:57;;;;;;;10.55;7.78;;;;;;;27.94;32.45;102512.47;10582432;28;20450;-79
2021/09/22 14:18:57;;;;;;;12.35;7.25;;;;;;;28.14;33.17;102613.88;10582849;28;20076;-79
2021/09/22 14:23:58;;;;;;;10.65;8.73;;;;;;;28.50;33.38;102631.53;10563931;28;20051;-80
2021/09/22 14:28:58;;;;;;;13.93;9.10;;;;;;;28.51;32.96;102630.41;10582408;28;20031;-80
2021/09/22 14:33:59;;;;;;;15.00;8.20;;;;;;;27.87;33.66;102609.34;10582209;28;20471;-79
2021/09/22 14:39:02;;;;;;;11.68;7.60;;;;;;;25.82;33.78;102356.22;10562656;28;20024;-80
2021/09/22 14:44:02;;;;;;;12.50;7.97;;;;;;;27.44;33.99;102607.72;10563917;28;20471;-79
2021/09/22 14:49:03;;;;;;;11.40;7.32;;;;;;;26.11;34.96;102560.22;10581218;28;20093;-79
2021/09/22 14:54:03;;;;;;;14.98;8.05;;;;;;;26.19;35.18;102606.94;10581242;28;20039;-79
2021/09/22 14:59:03;;;;;;;14.88;9.35;;;;;;;25.69;35.76;102596.91;10583193;28;20047;-80
2021/09/22 15:04:04;;;;;;;14.73;8.85;;;;;;;25.00;36.84;102621.41;10589228;28;20436;-79
2021/09/22 15:09:04;;;;;;;12.40;8.20;;;;;;;23.58;38.01;102426.75;10589021;28;20047;-79
2021/09/22 15:14:05;;;;;;;10.73;8.55;;;;;;;24.25;38.25;102562.50;10573329;28;20453;-79
2021/09/22 15:19:06;;;;;;;10.18;8.88;;;;;;;23.65;38.79;102514.03;10572163;28;20052;-80
2021/09/22 15:24:06;;;;;;;11.98;8.98;;;;;;;23.71;39.17;102539.91;10570528;28;20434;-79
2021/09/22 15:29:06;;;;;;;9.35;7.68;;;;;;;23.52;39.62;102519.00;10588885;28;20039;-79
2021/09/22 15:34:07;;;;;;;12.77;7.18;;;;;;;23.67;39.50;102581.00;10588540;28;20036;-80
2021/09/22 15:39:07;;;;;;;6.93;6.28;;;;;;;23.18;40.19;102538.19;10554042;28;20110;-80
2021/09/22 15:44:08;;;;;;;7.45;6.13;;;;;;;23.06;39.74;102518.00;10589533;28;20118;-79
2021/09/22 15:49:08;;;;;;;8.73;6.45;;;;;;;22.80;40.04;102498.06;10553513;28;20055;-79
2021/09/22 15:54:08;;;;;;;9.40;7.25;;;;;;;23.01;40.12;102553.81;10593947;28;20038;-79
2021/09/22 15:59:09;;;;;;;8.38;6.22;;;;;;;22.96;40.71;102555.38;10554032;28;20028;-79
2021/09/22 16:04:09;;;;;;;17.80;6.05;;;;;;;22.76;40.84;102557.63;10569996;28;20057;-78
2021/09/22 16:09:10;;;;;;;10.60;6.55;;;;;;;22.78;40.41;102525.06;10569101;28;20399;-79
2021/09/22 16:14:10;;;;;;;10.00;5.88;;;;;;;22.63;40.15;102511.75;10551974;28;20526;-79
2021/09/22 16:19:11;;;;;;;16.90;8.30;;;;;;;21.70;40.71;102388.25;10586519;28;20039;-79
2021/09/22 16:24:11;;;;;;;13.90;10.40;;;;;;;22.04;41.20;102484.00;10568973;28;20508;-79
2021/09/22 16:29:14;;;;;;;13.57;8.48;;;;;;;22.08;41.66;102505.59;10586425;28;20043;-79
2021/09/22 16:34:14;;;;;;;13.45;9.68;;;;;;;22.26;41.91;102542.28;10569537;28;20115;-79
2021/09/22 16:39:14;;;;;;;15.57;9.95;;;;;;;22.28;41.21;102547.59;10568660;28;20538;-78
2021/09/22 16:44:15;;;;;;;14.32;10.45;;;;;;;22.17;41.48;102538.16;10568142;28;20058;-79
2021/09/22 16:49:16;;;;;;;16.20;11.77;;;;;;;22.04;41.89;102541.09;10550987;28;20089;-79
2021/09/22 16:54:16;;;;;;;15.00;10.52;;;;;;;21.39;41.27;102494.06;10585556;28;20495;-80
2021/09/22 16:59:17;;;;;;;17.83;12.30;;;;;;;21.73;42.20;102532.00;10567643;28;20467;-79
2021/09/22 17:04:17;;;;;;;12.82;10.23;;;;;;;21.66;42.43;102538.66;10568330;28;20444;-79
2021/09/22 17:09:17;;;;;;;20.38;10.90;;;;;;;21.50;42.76;102529.94;10586528;28;20077;-79
2021/09/22 17:14:19;;;;;;;18.73;11.55;;;;;;;21.25;43.11;102509.88;10545589;28;20062;-79
2021/09/22 17:19:21;;;;;;;14.55;11.25;;;;;;;21.18;43.38;102522.88;10566233;28;20535;-79
2021/09/22 17:24:23;;;;;;;15.75;11.00;;;;;;;21.02;43.55;102525.16;10565506;28;20059;-79
2021/09/22 17:29:23;;;;;;;12.50;10.43;;;;;;;19.57;43.80;102310.78;10566429;28;20040;-79
2021/09/22 17:34:23;;;;;;;14.05;11.32;;;;;;;20.74;44.28;102524.81;10566197;28;20032;-79
2021/09/22 17:39:26;;;;;;;14.45;11.23;;;;;;;20.60;44.15;102526.84;10565441;28;20059;-78
2021/09/22 17:44:28;;;;;;;16.17;12.00;;;;;;;20.38;44.46;102531.84;10584004;28;20031;-79
2021/09/22 17:49:29;;;;;;;19.90;11.70;;;;;;;20.14;44.63;102506.84;10566272;28;20067;-78
2021/09/22 17:54:29;;;;;;;24.75;13.80;;;;;;;20.19;45.10;102534.53;10549712;28;20059;-79
2021/09/22 17:59:29;;;;;;;19.67;12.23;;;;;;;19.26;45.01;102383.03;10583553;28;20036;-79
2021/09/22 18:04:30;;;;;;;16.40;11.15;;;;;;;18.99;45.41;102404.31;10583844;28;20027;-79
2021/09/22 18:09:35;;;;;;;18.83;12.23;;;;;;;19.80;45.95;102515.53;10564356;28;20134;-80
2021/09/22 18:14:36;;;;;;;18.73;11.93;;;;;;;18.32;45.63;102283.75;10583671;28;20050;-79
2021/09/22 18:19:38;;;;;;;15.50;11.02;;;;;;;18.36;46.35;102322.56;10547950;28;20371;-79
2021/09/22 18:24:39;;;;;;;18.80;10.27;;;;;;;19.41;46.33;102529.19;10565171;28;20123;-79
2021/09/22 18:29:39;;;;;;;16.75;11.48;;;;;;;19.12;47.15;102477.53;10583019;28;20482;-79
2021/09/22 18:34:42;;;;;;;20.92;12.60;;;;;;;18.91;46.67;102456.69;10567497;28;20115;-79
2021/09/22 18:39:42;;;;;;;24.02;12.13;;;;;;;19.13;47.71;102488.28;10590694;28;20084;-79
2021/09/22 18:44:44;;;;;;;20.48;13.25;;;;;;;16.69;47.47;102107.28;10590924;28;20035;-80
2021/09/22 18:49:45;;;;;;;18.00;13.32;;;;;;;17.86;47.84;102344.13;10572092;28;20551;-79
2021/09/22 18:54:46;;;;;;;16.63;11.82;;;;;;;18.79;47.68;102497.66;10555735;28;20028;-74
2021/09/22 18:59:48;;;;;;;21.70;13.20;;;;;;;17.81;47.47;102355.72;10571253;28;20043;-79
2021/09/22 19:04:49;;;;;;;21.83;13.50;;;;;;;18.34;47.68;102459.88;10590381;28;20108;-78
2021/09/22 19:09:49;;;;;;;18.27;12.93;;;;;;;17.44;47.98;102325.09;10569735;28;20082;-78
2021/09/22 19:14:49;;;;;;;22.20;15.02;;;;;;;18.35;48.39;102485.44;10571731;28;20389;-78
2021/09/22 19:19:50;;;;;;;18.95;14.15;;;;;;;18.22;49.63;102485.41;10571570;28;20482;-78
2021/09/22 19:24:50;;;;;;;20.15;16.17;;;;;;;18.21;48.64;102480.97;10591610;28;20032;-78
2021/09/22 19:29:51;;;;;;;18.50;14.00;;;;;;;18.14;48.13;102478.25;10571364;28;20035;-78
2021/09/22 19:34:51;;;;;;;21.02;14.95;;;;;;;17.70;48.97;102445.88;10588928;28;20047;-79
2021/09/22 19:39:52;;;;;;;19.42;13.27;;;;;;;17.91;48.47;102466.84;10588674;28;20055;-79
2021/09/22 19:44:53;;;;;;;21.95;16.02;;;;;;;17.10;50.12;102347.13;10588026;28;20028;-79
2021/09/22 19:49:54;;;;;;;19.63;13.88;;;;;;;17.09;49.99;102364.59;10588959;28;20054;-79
2021/09/22 19:54:54;;;;;;;28.95;18.90;;;;;;;17.42;50.51;102455.94;10588554;28;20097;-79
2021/09/22 19:59:54;;;;;;;32.75;19.15;;;;;;;16.26;50.68;102310.72;10587746;28;20118;-79
2021/09/22 20:04:55;;;;;;;31.42;20.73;;;;;;;17.55;51.42;102443.28;10588357;28;20447;-78
2021/09/22 20:09:55;;;;;;;27.30;18.05;;;;;;;17.60;51.51;102449.84;10586303;28;20074;-79
2021/09/22 20:14:56;;;;;;;25.75;17.83;;;;;;;17.25;52.68;102371.59;10587594;28;20099;-78
2021/09/22 20:19:56;;;;;;;28.38;19.13;;;;;;;17.32;51.56;102369.72;10569276;28;20116;-79
2021/09/22 20:24:56;;;;;;;27.98;18.48;;;;;;;17.66;50.76;102420.78;10587282;28;20031;-78
2021/09/22 20:29:59;;;;;;;30.52;19.42;;;;;;;17.51;50.36;102428.34;10552128;28;20367;-78
2021/09/22 20:34:59;;;;;;;23.67;18.30;;;;;;;17.49;51.11;102419.50;10570617;28;20455;-79
2021/09/22 20:40:00;;;;;;;29.38;20.50;;;;;;;17.14;52.48;102364.84;10570682;28;20032;-79
2021/09/22 20:45:00;;;;;;;25.92;18.20;;;;;;;16.06;52.90;102184.06;10588414;28;20076;-78
2021/09/22 20:50:00;;;;;;;30.40;19.05;;;;;;;17.35;52.64;102372.88;10569588;28;20091;-79
2021/09/22 20:55:01;;;;;;;30.00;21.27;;;;;;;17.34;52.75;102384.91;10587028;28;20040;-79
2021/09/22 21:00:03;;;;;;;23.77;19.55;;;;;;;17.14;52.48;102345.69;10567667;28;20139;-79
2021/09/22 21:05:04;;;;;;;26.90;18.38;;;;;;;17.36;52.57;102360.91;10554266;28;20027;-78
2021/09/22 21:10:05;;;;;;;29.63;20.98;;;;;;;16.94;53.08;102319.09;10586728;28;20196;-79
2021/09/22 21:15:06;;;;;;;36.25;20.42;;;;;;;17.51;53.10;102362.59;10587348;28;20160;-79
2021/09/22 21:20:07;;;;;;;22.60;18.73;;;;;;;17.10;53.46;102303.31;10569893;28;20135;-79
2021/09/22 21:25:08;;;;;;;27.30;19.60;;;;;;;17.36;52.84;102305.28;10585668;28;20059;-78
2021/09/22 21:30:09;;;;;;;23.35;16.67;;;;;;;17.56;52.78;102338.19;10550024;28;20039;-78
2021/09/22 21:35:09;;;;;;;34.05;20.23;;;;;;;16.74;51.96;102219.66;10566964;28;20036;-78
2021/09/22 21:40:10;;;;;;;29.17;20.27;;;;;;;17.44;53.47;102352.47;10584548;28;20024;-79
2021/09/22 21:45:11;;;;;;;31.88;21.00;;;;;;;17.40;53.21;102342.16;10584202;28;20027;-78
2021/09/22 21:50:11;;;;;;;30.63;21.00;;;;;;;17.32;53.52;102345.06;10549281;28;20028;-79
2021/09/22 21:55:12;;;;;;;45.75;23.83;;;;;;;16.55;53.61;102215.78;10583979;28;20112;-79
2021/09/22 22:00:14;;;;;;;30.80;21.58;;;;;;;17.17;53.68;102296.00;10583714;28;20036;-79
2021/09/22 22:05:14;;;;;;;38.90;22.23;;;;;;;17.31;54.14;102319.59;10583560;28;20035;-78
2021/09/22 22:10:15;;;;;;;36.67;24.80;;;;;;;17.32;53.65;102336.88;10582789;28;20368;-78
2021/09/22 22:15:16;;;;;;;32.75;23.60;;;;;;;17.20;54.11;102325.69;10583848;28;20067;-78
2021/09/22 22:20:17;;;;;;;50.00;26.20;;;;;;;16.90;55.50;102290.44;10582534;28;20044;-79
2021/09/22 22:25:18;;;;;;;32.97;23.70;;;;;;;17.03;56.48;102316.16;10583090;28;20035;-78
2021/09/22 22:30:18;;;;;;;41.35;25.17;;;;;;;16.93;55.33;102303.69;10583083;28;20067;-79
2021/09/22 22:35:19;;;;;;;37.25;25.33;;;;;;;17.10;55.13;102330.69;10583998;28;20368;-78
2021/09/22 22:40:19;;;;;;;37.92;24.38;;;;;;;16.33;54.89;102222.44;10565896;28;20073;-78